sensor_id;sensor_type;location;lat;lon;timestamp;P1;durP1;ratioP1;P2;durP2;ratioP2
71083;SDS011;58741;52.672;13.548;2022-12-24T00:02:07;5.30;;;3.35;;
71083;SDS011;58741;52.672;13.548;2022-12-24T00:04:33;4.68;;;3.08;;
71083;SDS011;58741;52.672;13.548;2022-12-24T00:06:58;7.80;;;5.32;;
71083;SDS011;58741;52.672;13.548;2022-12-24T00:09:24;8.43;;;6.20;;
71083;SDS011;58741;52.672;13.548;2022-12-24T00:11:49;9.63;;;6.00;;
71083;SDS011;58741;52.672;13.548;2022-12-24T00:14:15;8.95;;;6.15;;
71083;SDS011;58741;52.672;13.548;2022-12-24T00:16:40;6.13;;;4.40;;
71083;SDS011;58741;52.672;13.548;2022-12-24T00:19:06;8.75;;;5.38;;
71083;SDS011;58741;52.672;13.548;2022-12-24T00:21:31;6.13;;;4.75;;
71083;SDS011;58741;52.672;13.548;2022-12-24T00:23:57;6.80;;;3.72;;
71083;SDS011;58741;52.672;13.548;2022-12-24T00:26:23;6.47;;;3.30;;
71083;SDS011;58741;52.672;13.548;2022-12-24T00:28:48;5.60;;;3.28;;
71083;SDS011;58741;52.672;13.548;2022-12-24T00:31:15;6.38;;;2.90;;
71083;SDS011;58741;52.672;13.548;2022-12-24T00:33:42;5.78;;;2.80;;
71083;SDS011;58741;52.672;13.548;2022-12-24T00:36:09;10.90;;;3.17;;
71083;SDS011;58741;52.672;13.548;2022-12-24T00:38:35;5.63;;;3.35;;
71083;SDS011;58741;52.672;13.548;2022-12-24T00:41:01;5.25;;;3.05;;
71083;SDS011;58741;52.672;13.548;2022-12-24T00:43:28;8.38;;;4.35;;
71083;SDS011;58741;52.672;13.548;2022-12-24T00:45:54;4.90;;;3.38;;
71083;SDS011;58741;52.672;13.548;2022-12-24T00:48:21;4.93;;;3.88;;
71083;SDS011;58741;52.672;13.548;2022-12-24T00:50:47;4.10;;;3.63;;
71083;SDS011;58741;52.672;13.548;2022-12-24T00:53:13;4.20;;;3.13;;
71083;SDS011;58741;52.672;13.548;2022-12-24T00:55:39;5.78;;;3.38;;
71083;SDS011;58741;52.672;13.548;2022-12-24T00:58:05;6.63;;;3.17;;
71083;SDS011;58741;52.672;13.548;2022-12-24T01:00:30;6.00;;;3.42;;
71083;SDS011;58741;52.672;13.548;2022-12-24T01:02:56;8.70;;;2.85;;
71083;SDS011;58741;52.672;13.548;2022-12-24T01:05:21;5.57;;;3.00;;
71083;SDS011;58741;52.672;13.548;2022-12-24T01:07:47;8.60;;;2.88;;
71083;SDS011;58741;52.672;13.548;2022-12-24T01:10:16;5.22;;;3.40;;
71083;SDS011;58741;52.672;13.548;2022-12-24T01:12:44;7.30;;;3.75;;
71083;SDS011;58741;52.672;13.548;2022-12-24T01:15:11;8.75;;;3.55;;
71083;SDS011;58741;52.672;13.548;2022-12-24T01:17:38;7.60;;;3.13;;
71083;SDS011;58741;52.672;13.548;2022-12-24T01:20:05;7.20;;;3.05;;
71083;SDS011;58741;52.672;13.548;2022-12-24T01:22:33;4.63;;;2.75;;
71083;SDS011;58741;52.672;13.548;2022-12-24T01:24:58;5.70;;;3.20;;
71083;SDS011;58741;52.672;13.548;2022-12-24T01:27:24;2.70;;;2.35;;
71083;SDS011;58741;52.672;13.548;2022-12-24T01:29:49;3.88;;;2.40;;
71083;SDS011;58741;52.672;13.548;2022-12-24T01:32:15;3.97;;;2.97;;
71083;SDS011;58741;52.672;13.548;2022-12-24T01:34:41;4.43;;;2.78;;
71083;SDS011;58741;52.672;13.548;2022-12-24T01:37:06;5.38;;;2.45;;
71083;SDS011;58741;52.672;13.548;2022-12-24T01:39:32;4.50;;;2.70;;
71083;SDS011;58741;52.672;13.548;2022-12-24T01:41:58;4.28;;;2.58;;
71083;SDS011;58741;52.672;13.548;2022-12-24T01:44:42;4.20;;;2.42;;
71083;SDS011;58741;52.672;13.548;2022-12-24T01:47:21;5.18;;;2.88;;
71083;SDS011;58741;52.672;13.548;2022-12-24T01:49:53;5.45;;;2.97;;
71083;SDS011;58741;52.672;13.548;2022-12-24T01:52:25;5.28;;;3.25;;
71083;SDS011;58741;52.672;13.548;2022-12-24T01:55:05;3.70;;;2.75;;
71083;SDS011;58741;52.672;13.548;2022-12-24T01:57:39;3.45;;;2.28;;
71083;SDS011;58741;52.672;13.548;2022-12-24T02:00:11;4.10;;;2.20;;
71083;SDS011;58741;52.672;13.548;2022-12-24T02:02:39;4.22;;;2.55;;
71083;SDS011;58741;52.672;13.548;2022-12-24T02:05:07;8.98;;;3.40;;
71083;SDS011;58741;52.672;13.548;2022-12-24T02:07:38;5.05;;;2.78;;
71083;SDS011;58741;52.672;13.548;2022-12-24T02:10:06;7.28;;;2.63;;
71083;SDS011;58741;52.672;13.548;2022-12-24T02:12:33;5.95;;;3.03;;
71083;SDS011;58741;52.672;13.548;2022-12-24T02:15:01;5.10;;;3.13;;
71083;SDS011;58741;52.672;13.548;2022-12-24T02:17:36;5.47;;;3.05;;
71083;SDS011;58741;52.672;13.548;2022-12-24T02:20:15;3.10;;;2.45;;
71083;SDS011;58741;52.672;13.548;2022-12-24T02:31:33;5.65;;;3.63;;
71083;SDS011;58741;52.672;13.548;2022-12-24T02:34:22;4.60;;;2.60;;
71083;SDS011;58741;52.672;13.548;2022-12-24T02:37:05;3.97;;;2.58;;
71083;SDS011;58741;52.672;13.548;2022-12-24T02:39:41;5.30;;;3.03;;
71083;SDS011;58741;52.672;13.548;2022-12-24T02:42:11;5.45;;;3.15;;
71083;SDS011;58741;52.672;13.548;2022-12-24T02:45:03;3.45;;;2.35;;
71083;SDS011;58741;52.672;13.548;2022-12-24T02:47:29;4.88;;;2.42;;
71083;SDS011;58741;52.672;13.548;2022-12-24T02:49:56;3.53;;;2.42;;
71083;SDS011;58741;52.672;13.548;2022-12-24T02:52:37;4.22;;;2.97;;
71083;SDS011;58741;52.672;13.548;2022-12-24T03:00:18;4.85;;;3.42;;
71083;SDS011;58741;52.672;13.548;2022-12-24T03:02:51;2.72;;;2.00;;
71083;SDS011;58741;52.672;13.548;2022-12-24T03:05:29;4.65;;;2.85;;
71083;SDS011;58741;52.672;13.548;2022-12-24T03:08:39;6.55;;;2.65;;
71083;SDS011;58741;52.672;13.548;2022-12-24T03:11:22;2.97;;;2.20;;
71083;SDS011;58741;52.672;13.548;2022-12-24T03:13:48;5.95;;;2.97;;
71083;SDS011;58741;52.672;13.548;2022-12-24T03:16:18;3.58;;;2.13;;
71083;SDS011;58741;52.672;13.548;2022-12-24T03:18:48;3.78;;;2.58;;
71083;SDS011;58741;52.672;13.548;2022-12-24T03:21:15;4.07;;;2.47;;
71083;SDS011;58741;52.672;13.548;2022-12-24T03:23:54;4.40;;;2.72;;
71083;SDS011;58741;52.672;13.548;2022-12-24T03:26:20;4.07;;;2.53;;
71083;SDS011;58741;52.672;13.548;2022-12-24T03:28:46;5.90;;;2.55;;
71083;SDS011;58741;52.672;13.548;2022-12-24T03:31:12;3.50;;;2.00;;
71083;SDS011;58741;52.672;13.548;2022-12-24T03:33:39;4.70;;;2.67;;
71083;SDS011;58741;52.672;13.548;2022-12-24T03:36:04;7.82;;;2.28;;
71083;SDS011;58741;52.672;13.548;2022-12-24T03:38:31;5.22;;;2.78;;
71083;SDS011;58741;52.672;13.548;2022-12-24T03:40:56;3.03;;;2.03;;
71083;SDS011;58741;52.672;13.548;2022-12-24T03:43:22;3.95;;;2.47;;
71083;SDS011;58741;52.672;13.548;2022-12-24T03:45:48;4.60;;;2.55;;
71083;SDS011;58741;52.672;13.548;2022-12-24T03:48:13;4.03;;;2.25;;
71083;SDS011;58741;52.672;13.548;2022-12-24T03:50:39;4.05;;;2.65;;
71083;SDS011;58741;52.672;13.548;2022-12-24T03:53:04;5.93;;;2.72;;
71083;SDS011;58741;52.672;13.548;2022-12-24T03:55:30;5.00;;;2.47;;
71083;SDS011;58741;52.672;13.548;2022-12-24T03:57:56;4.93;;;2.85;;
71083;SDS011;58741;52.672;13.548;2022-12-24T04:00:21;8.93;;;2.88;;
71083;SDS011;58741;52.672;13.548;2022-12-24T04:02:47;7.00;;;3.45;;
71083;SDS011;58741;52.672;13.548;2022-12-24T04:05:16;7.18;;;3.05;;
71083;SDS011;58741;52.672;13.548;2022-12-24T04:07:43;5.95;;;2.70;;
71083;SDS011;58741;52.672;13.548;2022-12-24T04:10:09;4.35;;;2.88;;
71083;SDS011;58741;52.672;13.548;2022-12-24T04:12:36;3.38;;;2.63;;
71083;SDS011;58741;52.672;13.548;2022-12-24T04:15:01;5.30;;;3.50;;
71083;SDS011;58741;52.672;13.548;2022-12-24T04:17:28;5.72;;;3.03;;
71083;SDS011;58741;52.672;13.548;2022-12-24T04:19:53;5.82;;;2.67;;
71083;SDS011;58741;52.672;13.548;2022-12-24T04:22:19;9.18;;;3.08;;
71083;SDS011;58741;52.672;13.548;2022-12-24T04:24:45;6.72;;;3.50;;
71083;SDS011;58741;52.672;13.548;2022-12-24T04:27:12;5.38;;;2.53;;
71083;SDS011;58741;52.672;13.548;2022-12-24T04:29:38;7.50;;;3.35;;
71083;SDS011;58741;52.672;13.548;2022-12-24T04:32:04;5.10;;;2.70;;
71083;SDS011;58741;52.672;13.548;2022-12-24T04:34:29;6.93;;;2.70;;
71083;SDS011;58741;52.672;13.548;2022-12-24T04:36:55;6.43;;;3.55;;
71083;SDS011;58741;52.672;13.548;2022-12-24T04:39:20;4.30;;;2.75;;
71083;SDS011;58741;52.672;13.548;2022-12-24T04:41:46;6.28;;;2.80;;
71083;SDS011;58741;52.672;13.548;2022-12-24T04:44:12;2.65;;;2.03;;
71083;SDS011;58741;52.672;13.548;2022-12-24T04:46:37;6.85;;;2.90;;
71083;SDS011;58741;52.672;13.548;2022-12-24T04:49:03;5.28;;;2.75;;
71083;SDS011;58741;52.672;13.548;2022-12-24T04:51:28;3.97;;;2.50;;
71083;SDS011;58741;52.672;13.548;2022-12-24T04:53:54;5.63;;;3.15;;
71083;SDS011;58741;52.672;13.548;2022-12-24T04:56:25;4.78;;;2.35;;
71083;SDS011;58741;52.672;13.548;2022-12-24T04:58:52;4.47;;;2.40;;
71083;SDS011;58741;52.672;13.548;2022-12-24T05:01:20;2.50;;;1.90;;
71083;SDS011;58741;52.672;13.548;2022-12-24T05:03:47;3.95;;;2.38;;
71083;SDS011;58741;52.672;13.548;2022-12-24T05:06:15;4.30;;;2.85;;
71083;SDS011;58741;52.672;13.548;2022-12-24T05:08:43;8.07;;;2.85;;
71083;SDS011;58741;52.672;13.548;2022-12-24T05:11:08;5.68;;;3.40;;
71083;SDS011;58741;52.672;13.548;2022-12-24T05:13:35;4.63;;;2.30;;
71083;SDS011;58741;52.672;13.548;2022-12-24T05:16:01;2.55;;;1.98;;
71083;SDS011;58741;52.672;13.548;2022-12-24T05:18:26;6.50;;;2.67;;
71083;SDS011;58741;52.672;13.548;2022-12-24T05:20:52;4.80;;;2.75;;
71083;SDS011;58741;52.672;13.548;2022-12-24T05:23:22;3.22;;;2.03;;
71083;SDS011;58741;52.672;13.548;2022-12-24T05:26:18;4.00;;;2.58;;
71083;SDS011;58741;52.672;13.548;2022-12-24T05:28:49;4.85;;;2.95;;
71083;SDS011;58741;52.672;13.548;2022-12-24T05:31:15;4.10;;;1.83;;
71083;SDS011;58741;52.672;13.548;2022-12-24T05:33:41;9.68;;;3.05;;
71083;SDS011;58741;52.672;13.548;2022-12-24T05:36:07;9.45;;;2.55;;
71083;SDS011;58741;52.672;13.548;2022-12-24T05:38:33;5.65;;;2.50;;
71083;SDS011;58741;52.672;13.548;2022-12-24T05:40:59;5.70;;;3.22;;
71083;SDS011;58741;52.672;13.548;2022-12-24T05:43:24;4.97;;;3.40;;
71083;SDS011;58741;52.672;13.548;2022-12-24T05:45:50;6.35;;;3.20;;
71083;SDS011;58741;52.672;13.548;2022-12-24T05:48:16;6.47;;;2.72;;
71083;SDS011;58741;52.672;13.548;2022-12-24T05:50:41;5.25;;;2.40;;
71083;SDS011;58741;52.672;13.548;2022-12-24T05:53:07;3.72;;;1.88;;
71083;SDS011;58741;52.672;13.548;2022-12-24T05:55:33;6.30;;;3.03;;
71083;SDS011;58741;52.672;13.548;2022-12-24T05:57:59;6.38;;;2.47;;
71083;SDS011;58741;52.672;13.548;2022-12-24T06:00:24;6.05;;;2.50;;
71083;SDS011;58741;52.672;13.548;2022-12-24T06:02:50;5.97;;;2.95;;
71083;SDS011;58741;52.672;13.548;2022-12-24T06:05:16;3.55;;;2.05;;
71083;SDS011;58741;52.672;13.548;2022-12-24T06:07:41;5.80;;;2.83;;
71083;SDS011;58741;52.672;13.548;2022-12-24T06:10:07;4.97;;;2.63;;
71083;SDS011;58741;52.672;13.548;2022-12-24T06:12:33;3.70;;;2.50;;
71083;SDS011;58741;52.672;13.548;2022-12-24T06:14:59;5.38;;;2.90;;
71083;SDS011;58741;52.672;13.548;2022-12-24T06:17:24;5.05;;;2.50;;
71083;SDS011;58741;52.672;13.548;2022-12-24T06:19:50;4.82;;;2.22;;
71083;SDS011;58741;52.672;13.548;2022-12-24T06:22:15;5.57;;;2.85;;
71083;SDS011;58741;52.672;13.548;2022-12-24T06:24:41;3.88;;;2.58;;
71083;SDS011;58741;52.672;13.548;2022-12-24T06:27:07;4.18;;;2.92;;
71083;SDS011;58741;52.672;13.548;2022-12-24T06:29:32;5.07;;;2.42;;
71083;SDS011;58741;52.672;13.548;2022-12-24T06:31:58;4.60;;;2.45;;
71083;SDS011;58741;52.672;13.548;2022-12-24T06:34:23;3.90;;;2.30;;
71083;SDS011;58741;52.672;13.548;2022-12-24T06:36:49;5.63;;;2.80;;
71083;SDS011;58741;52.672;13.548;2022-12-24T06:39:14;6.18;;;2.85;;
71083;SDS011;58741;52.672;13.548;2022-12-24T06:41:40;3.55;;;2.40;;
71083;SDS011;58741;52.672;13.548;2022-12-24T06:44:06;6.40;;;2.78;;
71083;SDS011;58741;52.672;13.548;2022-12-24T06:46:32;5.78;;;2.65;;
71083;SDS011;58741;52.672;13.548;2022-12-24T06:48:58;5.28;;;2.35;;
71083;SDS011;58741;52.672;13.548;2022-12-24T06:51:23;4.55;;;2.42;;
71083;SDS011;58741;52.672;13.548;2022-12-24T06:53:50;5.72;;;3.35;;
71083;SDS011;58741;52.672;13.548;2022-12-24T06:56:15;3.33;;;2.28;;
71083;SDS011;58741;52.672;13.548;2022-12-24T06:58:41;5.50;;;3.30;;
71083;SDS011;58741;52.672;13.548;2022-12-24T07:01:09;6.57;;;2.80;;
71083;SDS011;58741;52.672;13.548;2022-12-24T07:03:37;5.43;;;3.10;;
71083;SDS011;58741;52.672;13.548;2022-12-24T07:06:03;5.28;;;3.08;;
71083;SDS011;58741;52.672;13.548;2022-12-24T07:08:29;5.55;;;2.85;;
71083;SDS011;58741;52.672;13.548;2022-12-24T07:10:57;5.03;;;3.10;;
71083;SDS011;58741;52.672;13.548;2022-12-24T07:13:23;8.32;;;3.88;;
71083;SDS011;58741;52.672;13.548;2022-12-24T07:15:56;8.15;;;2.75;;
71083;SDS011;58741;52.672;13.548;2022-12-24T07:18:22;5.60;;;2.92;;
71083;SDS011;58741;52.672;13.548;2022-12-24T07:20:48;5.43;;;2.95;;
71083;SDS011;58741;52.672;13.548;2022-12-24T07:23:13;5.00;;;2.78;;
71083;SDS011;58741;52.672;13.548;2022-12-24T07:25:41;4.32;;;2.65;;
71083;SDS011;58741;52.672;13.548;2022-12-24T07:28:06;7.25;;;3.15;;
71083;SDS011;58741;52.672;13.548;2022-12-24T07:30:32;13.40;;;6.00;;
71083;SDS011;58741;52.672;13.548;2022-12-24T07:32:58;13.77;;;5.90;;
71083;SDS011;58741;52.672;13.548;2022-12-24T07:35:23;16.65;;;8.25;;
71083;SDS011;58741;52.672;13.548;2022-12-24T07:37:49;10.75;;;5.15;;
71083;SDS011;58741;52.672;13.548;2022-12-24T07:40:14;10.07;;;5.05;;
71083;SDS011;58741;52.672;13.548;2022-12-24T07:42:40;12.25;;;5.07;;
71083;SDS011;58741;52.672;13.548;2022-12-24T07:45:06;7.15;;;4.20;;
71083;SDS011;58741;52.672;13.548;2022-12-24T07:47:32;6.07;;;3.30;;
71083;SDS011;58741;52.672;13.548;2022-12-24T07:49:58;7.32;;;4.32;;
71083;SDS011;58741;52.672;13.548;2022-12-24T07:52:24;8.70;;;4.35;;
71083;SDS011;58741;52.672;13.548;2022-12-24T07:54:49;10.10;;;5.30;;
71083;SDS011;58741;52.672;13.548;2022-12-24T07:57:15;9.88;;;4.63;;
71083;SDS011;58741;52.672;13.548;2022-12-24T07:59:40;10.90;;;4.57;;
71083;SDS011;58741;52.672;13.548;2022-12-24T08:02:08;6.57;;;3.13;;
71083;SDS011;58741;52.672;13.548;2022-12-24T08:04:34;8.63;;;3.85;;
71083;SDS011;58741;52.672;13.548;2022-12-24T08:07:02;6.15;;;3.13;;
71083;SDS011;58741;52.672;13.548;2022-12-24T08:09:30;5.60;;;3.35;;
71083;SDS011;58741;52.672;13.548;2022-12-24T08:11:56;6.90;;;3.33;;
71083;SDS011;58741;52.672;13.548;2022-12-24T08:14:22;9.20;;;3.33;;
71083;SDS011;58741;52.672;13.548;2022-12-24T08:16:47;6.68;;;3.50;;
71083;SDS011;58741;52.672;13.548;2022-12-24T08:19:13;5.10;;;2.75;;
71083;SDS011;58741;52.672;13.548;2022-12-24T08:21:38;3.55;;;2.25;;
71083;SDS011;58741;52.672;13.548;2022-12-24T08:24:04;5.80;;;3.13;;
71083;SDS011;58741;52.672;13.548;2022-12-24T08:26:30;9.15;;;3.80;;
71083;SDS011;58741;52.672;13.548;2022-12-24T08:28:56;3.70;;;2.13;;
71083;SDS011;58741;52.672;13.548;2022-12-24T08:31:21;3.20;;;2.30;;
71083;SDS011;58741;52.672;13.548;2022-12-24T08:33:47;3.45;;;1.95;;
71083;SDS011;58741;52.672;13.548;2022-12-24T08:36:12;3.78;;;2.35;;
71083;SDS011;58741;52.672;13.548;2022-12-24T08:38:38;5.63;;;2.60;;
71083;SDS011;58741;52.672;13.548;2022-12-24T08:41:04;3.78;;;2.03;;
71083;SDS011;58741;52.672;13.548;2022-12-24T08:43:30;5.65;;;2.47;;
71083;SDS011;58741;52.672;13.548;2022-12-24T08:46:00;7.20;;;2.35;;
71083;SDS011;58741;52.672;13.548;2022-12-24T08:48:28;3.05;;;1.90;;
71083;SDS011;58741;52.672;13.548;2022-12-24T08:50:53;5.68;;;2.10;;
71083;SDS011;58741;52.672;13.548;2022-12-24T08:53:19;3.42;;;1.77;;
71083;SDS011;58741;52.672;13.548;2022-12-24T08:55:45;3.20;;;2.22;;
71083;SDS011;58741;52.672;13.548;2022-12-24T08:58:10;5.00;;;2.92;;
71083;SDS011;58741;52.672;13.548;2022-12-24T09:00:36;4.38;;;2.80;;
71083;SDS011;58741;52.672;13.548;2022-12-24T09:03:01;8.60;;;3.72;;
71083;SDS011;58741;52.672;13.548;2022-12-24T09:05:27;3.92;;;2.20;;
71083;SDS011;58741;52.672;13.548;2022-12-24T09:07:53;4.63;;;2.33;;
71083;SDS011;58741;52.672;13.548;2022-12-24T09:10:18;4.53;;;2.42;;
71083;SDS011;58741;52.672;13.548;2022-12-24T09:12:44;4.40;;;2.58;;
71083;SDS011;58741;52.672;13.548;2022-12-24T09:15:10;3.47;;;2.22;;
71083;SDS011;58741;52.672;13.548;2022-12-24T09:17:38;5.35;;;2.38;;
71083;SDS011;58741;52.672;13.548;2022-12-24T09:20:05;6.03;;;3.08;;
71083;SDS011;58741;52.672;13.548;2022-12-24T09:22:33;5.30;;;2.85;;
71083;SDS011;58741;52.672;13.548;2022-12-24T09:25:01;4.00;;;2.65;;
71083;SDS011;58741;52.672;13.548;2022-12-24T09:27:26;8.38;;;2.80;;
71083;SDS011;58741;52.672;13.548;2022-12-24T09:29:53;3.75;;;1.90;;
71083;SDS011;58741;52.672;13.548;2022-12-24T09:32:19;4.85;;;2.03;;
71083;SDS011;58741;52.672;13.548;2022-12-24T09:34:44;6.97;;;2.20;;
71083;SDS011;58741;52.672;13.548;2022-12-24T09:37:10;4.28;;;2.08;;
71083;SDS011;58741;52.672;13.548;2022-12-24T09:39:36;3.78;;;2.33;;
71083;SDS011;58741;52.672;13.548;2022-12-24T09:42:20;4.90;;;2.50;;
71083;SDS011;58741;52.672;13.548;2022-12-24T09:45:01;3.92;;;2.67;;
71083;SDS011;58741;52.672;13.548;2022-12-24T09:47:38;4.68;;;3.08;;
71083;SDS011;58741;52.672;13.548;2022-12-24T09:52:56;7.00;;;2.95;;
71083;SDS011;58741;52.672;13.548;2022-12-24T09:55:29;4.22;;;2.70;;
71083;SDS011;58741;52.672;13.548;2022-12-24T09:57:59;5.90;;;2.65;;
71083;SDS011;58741;52.672;13.548;2022-12-24T10:00:29;3.50;;;2.22;;
71083;SDS011;58741;52.672;13.548;2022-12-24T10:02:59;7.80;;;2.28;;
71083;SDS011;58741;52.672;13.548;2022-12-24T10:05:36;3.17;;;1.95;;
71083;SDS011;58741;52.672;13.548;2022-12-24T10:11:42;3.78;;;2.47;;
71083;SDS011;58741;52.672;13.548;2022-12-24T10:19:49;1.95;;;1.67;;
71083;SDS011;58741;52.672;13.548;2022-12-24T10:22:40;3.88;;;1.98;;
71083;SDS011;58741;52.672;13.548;2022-12-24T10:25:20;1.83;;;1.13;;
71083;SDS011;58741;52.672;13.548;2022-12-24T10:27:50;3.60;;;1.70;;
71083;SDS011;58741;52.672;13.548;2022-12-24T10:30:19;2.75;;;1.58;;
71083;SDS011;58741;52.672;13.548;2022-12-24T10:32:47;2.50;;;1.48;;
71083;SDS011;58741;52.672;13.548;2022-12-24T10:37:40;3.13;;;2.15;;
71083;SDS011;58741;52.672;13.548;2022-12-24T10:40:11;5.15;;;2.22;;
71083;SDS011;58741;52.672;13.548;2022-12-24T10:42:47;1.83;;;1.35;;
71083;SDS011;58741;52.672;13.548;2022-12-24T10:45:17;2.40;;;1.83;;
71083;SDS011;58741;52.672;13.548;2022-12-24T10:47:46;3.03;;;1.90;;
71083;SDS011;58741;52.672;13.548;2022-12-24T10:50:17;1.73;;;1.45;;
71083;SDS011;58741;52.672;13.548;2022-12-24T10:52:52;2.22;;;1.50;;
71083;SDS011;58741;52.672;13.548;2022-12-24T10:55:22;3.45;;;1.95;;
71083;SDS011;58741;52.672;13.548;2022-12-24T10:58:04;2.05;;;1.77;;
71083;SDS011;58741;52.672;13.548;2022-12-24T11:00:31;3.53;;;1.98;;
71083;SDS011;58741;52.672;13.548;2022-12-24T11:05:37;2.95;;;2.00;;
71083;SDS011;58741;52.672;13.548;2022-12-24T11:08:05;2.47;;;1.63;;
71083;SDS011;58741;52.672;13.548;2022-12-24T11:10:40;2.58;;;1.77;;
71083;SDS011;58741;52.672;13.548;2022-12-24T11:13:30;2.63;;;1.65;;
71083;SDS011;58741;52.672;13.548;2022-12-24T11:18:51;6.70;;;1.50;;
71083;SDS011;58741;52.672;13.548;2022-12-24T11:21:20;2.72;;;1.58;;
71083;SDS011;58741;52.672;13.548;2022-12-24T11:23:48;3.78;;;2.22;;
71083;SDS011;58741;52.672;13.548;2022-12-24T11:26:20;2.72;;;1.85;;
71083;SDS011;58741;52.672;13.548;2022-12-24T11:29:02;2.88;;;1.95;;
71083;SDS011;58741;52.672;13.548;2022-12-24T11:31:29;5.13;;;2.30;;
71083;SDS011;58741;52.672;13.548;2022-12-24T11:33:56;3.65;;;2.10;;
71083;SDS011;58741;52.672;13.548;2022-12-24T11:36:22;6.90;;;2.45;;
71083;SDS011;58741;52.672;13.548;2022-12-24T11:38:54;4.07;;;2.30;;
71083;SDS011;58741;52.672;13.548;2022-12-24T11:41:21;3.30;;;2.20;;
71083;SDS011;58741;52.672;13.548;2022-12-24T11:43:56;2.17;;;1.63;;
71083;SDS011;58741;52.672;13.548;2022-12-24T11:46:35;5.68;;;2.42;;
71083;SDS011;58741;52.672;13.548;2022-12-24T11:51:36;3.17;;;1.73;;
71083;SDS011;58741;52.672;13.548;2022-12-24T11:54:15;2.55;;;1.83;;
71083;SDS011;58741;52.672;13.548;2022-12-24T11:56:48;4.43;;;2.25;;
71083;SDS011;58741;52.672;13.548;2022-12-24T11:59:19;2.53;;;1.70;;
71083;SDS011;58741;52.672;13.548;2022-12-24T12:01:52;3.05;;;1.80;;
71083;SDS011;58741;52.672;13.548;2022-12-24T12:04:27;4.30;;;2.30;;
71083;SDS011;58741;52.672;13.548;2022-12-24T12:06:57;7.00;;;3.00;;
71083;SDS011;58741;52.672;13.548;2022-12-24T12:12:25;3.60;;;2.30;;
71083;SDS011;58741;52.672;13.548;2022-12-24T12:15:00;5.47;;;3.03;;
71083;SDS011;58741;52.672;13.548;2022-12-24T12:17:41;5.32;;;3.03;;
71083;SDS011;58741;52.672;13.548;2022-12-24T12:20:34;7.60;;;3.15;;
71083;SDS011;58741;52.672;13.548;2022-12-24T12:26:11;3.78;;;2.80;;
71083;SDS011;58741;52.672;13.548;2022-12-24T12:29:03;5.55;;;3.63;;
71083;SDS011;58741;52.672;13.548;2022-12-24T12:31:51;5.82;;;2.92;;
71083;SDS011;58741;52.672;13.548;2022-12-24T12:34:27;12.20;;;3.60;;
71083;SDS011;58741;52.672;13.548;2022-12-24T12:39:56;6.57;;;2.90;;
71083;SDS011;58741;52.672;13.548;2022-12-24T12:42:29;4.78;;;2.53;;
71083;SDS011;58741;52.672;13.548;2022-12-24T12:45:02;5.18;;;2.67;;
71083;SDS011;58741;52.672;13.548;2022-12-24T12:50:28;3.42;;;2.45;;
71083;SDS011;58741;52.672;13.548;2022-12-24T12:53:15;4.35;;;2.47;;
71083;SDS011;58741;52.672;13.548;2022-12-24T12:59:03;4.80;;;3.28;;
71083;SDS011;58741;52.672;13.548;2022-12-24T13:01:50;5.25;;;3.03;;
71083;SDS011;58741;52.672;13.548;2022-12-24T13:04:38;6.40;;;3.67;;
71083;SDS011;58741;52.672;13.548;2022-12-24T13:07:23;5.25;;;3.53;;
71083;SDS011;58741;52.672;13.548;2022-12-24T13:12:46;5.25;;;3.13;;
71083;SDS011;58741;52.672;13.548;2022-12-24T13:15:37;5.25;;;3.25;;
71083;SDS011;58741;52.672;13.548;2022-12-24T13:20:57;4.13;;;2.23;;
71083;SDS011;58741;52.672;13.548;2022-12-24T13:23:23;4.60;;;2.80;;
71083;SDS011;58741;52.672;13.548;2022-12-24T13:25:51;6.63;;;3.17;;
71083;SDS011;58741;52.672;13.548;2022-12-24T13:30:45;3.38;;;2.70;;
71083;SDS011;58741;52.672;13.548;2022-12-24T13:33:12;4.47;;;2.42;;
71083;SDS011;58741;52.672;13.548;2022-12-24T13:35:58;5.05;;;2.83;;
71083;SDS011;58741;52.672;13.548;2022-12-24T13:40:52;6.63;;;3.40;;
71083;SDS011;58741;52.672;13.548;2022-12-24T13:46:49;5.07;;;3.20;;
71083;SDS011;58741;52.672;13.548;2022-12-24T13:49:21;7.43;;;3.40;;
71083;SDS011;58741;52.672;13.548;2022-12-24T13:51:50;8.02;;;3.83;;
71083;SDS011;58741;52.672;13.548;2022-12-24T13:54:17;9.02;;;4.07;;
71083;SDS011;58741;52.672;13.548;2022-12-24T13:56:52;5.57;;;3.95;;
71083;SDS011;58741;52.672;13.548;2022-12-24T14:01:49;5.20;;;3.28;;
71083;SDS011;58741;52.672;13.548;2022-12-24T14:04:22;5.78;;;4.15;;
71083;SDS011;58741;52.672;13.548;2022-12-24T14:06:54;4.28;;;3.15;;
71083;SDS011;58741;52.672;13.548;2022-12-24T14:09:23;5.78;;;3.75;;
71083;SDS011;58741;52.672;13.548;2022-12-24T14:14:39;9.23;;;3.70;;
71083;SDS011;58741;52.672;13.548;2022-12-24T14:17:37;3.92;;;3.25;;
71083;SDS011;58741;52.672;13.548;2022-12-24T14:19:58;5.80;;;3.63;;
71083;SDS011;58741;52.672;13.548;2022-12-24T14:22:32;6.25;;;3.75;;
71083;SDS011;58741;52.672;13.548;2022-12-24T14:27:42;4.82;;;3.25;;
71083;SDS011;58741;52.672;13.548;2022-12-24T14:33:25;15.70;;;4.65;;
71083;SDS011;58741;52.672;13.548;2022-12-24T14:35:52;6.75;;;3.38;;
71083;SDS011;58741;52.672;13.548;2022-12-24T14:38:18;7.05;;;3.95;;
71083;SDS011;58741;52.672;13.548;2022-12-24T14:43:26;6.28;;;3.83;;
71083;SDS011;58741;52.672;13.548;2022-12-24T14:46:11;6.85;;;3.97;;
71083;SDS011;58741;52.672;13.548;2022-12-24T14:48:44;7.60;;;4.35;;
71083;SDS011;58741;52.672;13.548;2022-12-24T14:51:34;8.35;;;3.97;;
71083;SDS011;58741;52.672;13.548;2022-12-24T14:54:21;6.68;;;4.05;;
71083;SDS011;58741;52.672;13.548;2022-12-24T15:02:24;5.85;;;3.63;;
71083;SDS011;58741;52.672;13.548;2022-12-24T15:05:12;6.45;;;3.42;;
71083;SDS011;58741;52.672;13.548;2022-12-24T15:07:55;5.40;;;3.25;;
71083;SDS011;58741;52.672;13.548;2022-12-24T15:10:32;5.60;;;3.65;;
71083;SDS011;58741;52.672;13.548;2022-12-24T15:13:01;9.35;;;3.45;;
71083;SDS011;58741;52.672;13.548;2022-12-24T15:15:48;4.95;;;3.40;;
71083;SDS011;58741;52.672;13.548;2022-12-24T15:18:19;7.65;;;4.45;;
71083;SDS011;58741;52.672;13.548;2022-12-24T15:20:48;9.20;;;3.47;;
71083;SDS011;58741;52.672;13.548;2022-12-24T15:23:20;4.88;;;3.30;;
71083;SDS011;58741;52.672;13.548;2022-12-24T15:25:50;4.43;;;2.83;;
71083;SDS011;58741;52.672;13.548;2022-12-24T15:28:19;6.72;;;3.42;;
71083;SDS011;58741;52.672;13.548;2022-12-24T15:30:47;5.03;;;3.15;;
71083;SDS011;58741;52.672;13.548;2022-12-24T15:33:13;7.03;;;3.95;;
71083;SDS011;58741;52.672;13.548;2022-12-24T15:38:22;5.68;;;3.75;;
71083;SDS011;58741;52.672;13.548;2022-12-24T15:40:58;7.05;;;4.25;;
71083;SDS011;58741;52.672;13.548;2022-12-24T15:43:26;7.80;;;3.53;;
71083;SDS011;58741;52.672;13.548;2022-12-24T15:45:52;7.28;;;3.78;;
71083;SDS011;58741;52.672;13.548;2022-12-24T15:48:27;5.53;;;4.32;;
71083;SDS011;58741;52.672;13.548;2022-12-24T15:50:55;6.72;;;4.53;;
71083;SDS011;58741;52.672;13.548;2022-12-24T15:58:41;8.40;;;4.90;;
71083;SDS011;58741;52.672;13.548;2022-12-24T16:03:38;6.65;;;4.30;;
71083;SDS011;58741;52.672;13.548;2022-12-24T16:06:05;5.45;;;3.38;;
71083;SDS011;58741;52.672;13.548;2022-12-24T16:08:33;4.78;;;3.50;;
71083;SDS011;58741;52.672;13.548;2022-12-24T16:13:40;4.28;;;2.75;;
71083;SDS011;58741;52.672;13.548;2022-12-24T16:16:09;4.70;;;3.10;;
71083;SDS011;58741;52.672;13.548;2022-12-24T16:18:38;8.23;;;3.63;;
71083;SDS011;58741;52.672;13.548;2022-12-24T16:21:38;5.90;;;3.38;;
71083;SDS011;58741;52.672;13.548;2022-12-24T16:24:16;8.15;;;3.97;;
71083;SDS011;58741;52.672;13.548;2022-12-24T16:26:45;15.38;;;6.35;;